Time;durP1;ratioP1;P1;durP2;ratioP2;P2;SDS_P1;SDS_P2;PMS_P1;PMS_P2;Temp;Humidity;BMP_temperature;BMP_pressure;BME280_temperature;BME280_humidity;BME280_pressure;Samples;Min_cycle;Max_cycle;Signal;HPM_P1;HPM_P2
2023/01/16 00:02:11;;;;;;;27.30;14.10;;;;;;;0.30;87.84;95077.80;110109;1276;22845;-73
2023/01/16 00:04:39;;;;;;;25.80;14.60;;;;;;;0.32;87.77;95077.49;110098;1276;22842;-73
2023/01/16 00:07:08;;;;;;;24.00;13.20;;;;;;;0.33;87.35;95085.28;110085;1276;22193;-73
2023/01/16 00:09:36;;;;;;;24.20;14.20;;;;;;;0.35;87.83;95076.66;110318;1264;22115;-73
2023/01/16 00:12:04;;;;;;;35.20;19.40;;;;;;;0.42;87.63;95077.79;110207;1272;22976;-73
2023/01/16 00:14:33;;;;;;;41.60;21.50;;;;;;;0.44;87.44;95078.15;110121;1274;22129;-73
2023/01/16 00:17:01;;;;;;;42.10;23.00;;;;;;;0.47;87.50;95079.39;110154;1273;22150;-73
2023/01/16 00:19:29;;;;;;;39.70;22.00;;;;;;;0.58;88.01;95080.55;110078;1276;22811;-73
2023/01/16 00:21:59;;;;;;;39.70;22.10;;;;;;;0.67;87.65;95073.73;110137;1276;22281;-73
2023/01/16 00:24:27;;;;;;;37.20;20.00;;;;;;;0.64;86.78;95065.23;110129;1275;22996;-73
2023/01/16 00:26:56;;;;;;;36.20;18.90;;;;;;;0.61;86.79;95067.79;110220;1276;22841;-73
2023/01/16 00:29:24;;;;;;;35.20;18.60;;;;;;;0.62;86.77;95073.85;110189;1276;22131;-73
2023/01/16 00:31:52;;;;;;;30.50;17.00;;;;;;;0.58;86.49;95073.29;110111;1276;22201;-73
2023/01/16 00:34:21;;;;;;;25.60;14.10;;;;;;;0.54;86.58;95067.18;110129;1276;22213;-73
2023/01/16 00:36:49;;;;;;;26.00;14.50;;;;;;;0.52;86.89;95063.86;110101;1273;22173;-73
2023/01/16 00:39:18;;;;;;;31.90;16.70;;;;;;;0.58;87.72;95062.38;110106;1276;23212;-73
2023/01/16 00:41:46;;;;;;;27.40;15.60;;;;;;;0.69;88.06;95054.38;110078;1276;22186;-73
2023/01/16 00:44:16;;;;;;;26.40;14.10;;;;;;;0.73;87.39;95063.24;110100;1276;22204;-73
2023/01/16 00:46:44;;;;;;;28.30;15.20;;;;;;;0.69;86.81;95059.21;110222;1276;22924;-73
2023/01/16 00:49:12;;;;;;;34.80;17.10;;;;;;;0.60;86.80;95062.58;110138;1273;22999;-73
2023/01/16 00:51:41;;;;;;;38.30;18.80;;;;;;;0.57;86.97;95063.23;110220;1273;22221;-73
2023/01/16 00:54:09;;;;;;;29.00;16.40;;;;;;;0.55;87.22;95056.65;110109;1276;22143;-72
2023/01/16 00:56:38;;;;;;;34.90;18.80;;;;;;;0.55;87.26;95052.33;110143;1276;22143;-73
2023/01/16 00:59:06;;;;;;;38.40;20.10;;;;;;;0.55;87.26;95048.52;110201;1276;22251;-73
2023/01/16 01:01:34;;;;;;;37.70;19.70;;;;;;;0.51;86.85;95041.20;110121;1276;22194;-73
2023/01/16 01:04:03;;;;;;;32.40;16.80;;;;;;;0.48;86.73;95044.63;110129;1276;22126;-73
2023/01/16 01:06:32;;;;;;;23.40;12.20;;;;;;;0.42;86.63;95041.44;110125;1276;22143;-73
2023/01/16 01:09:00;;;;;;;24.50;12.20;;;;;;;0.37;86.61;95038.29;110140;1276;22119;-73
2023/01/16 01:11:28;;;;;;;19.10;11.80;;;;;;;0.34;86.93;95033.73;110131;1276;22175;-73
2023/01/16 01:13:57;;;;;;;19.30;10.50;;;;;;;0.27;88.27;95032.79;110147;1276;23149;-73
2023/01/16 01:16:28;;;;;;;15.10;9.10;;;;;;;0.28;87.82;95025.55;110148;1276;22115;-73
2023/01/16 01:18:56;;;;;;;20.20;10.70;;;;;;;0.29;87.80;95019.14;110137;1274;22946;-73
2023/01/16 01:21:25;;;;;;;18.70;9.30;;;;;;;0.30;87.97;95025.73;110115;1276;22191;-73
2023/01/16 01:23:55;;;;;;;18.30;10.60;;;;;;;0.31;88.29;95017.44;110093;1276;22148;-73
2023/01/16 01:26:24;;;;;;;21.40;12.40;;;;;;;0.34;88.54;95008.14;110362;1276;22125;-73
2023/01/16 01:28:52;;;;;;;20.70;11.20;;;;;;;0.41;88.83;95004.41;110125;1276;22150;-73
2023/01/16 01:31:20;;;;;;;23.90;13.10;;;;;;;0.47;88.54;95003.09;110135;1273;23055;-73
2023/01/16 01:33:49;;;;;;;30.20;15.70;;;;;;;0.47;88.57;94997.20;110129;1276;22138;-73
2023/01/16 01:36:17;;;;;;;21.90;12.90;;;;;;;0.55;88.86;94998.85;110177;1276;22119;-73
2023/01/16 01:38:49;;;;;;;20.50;12.30;;;;;;;0.66;88.97;94994.29;110249;1276;22295;-73
2023/01/16 01:41:17;;;;;;;19.60;11.50;;;;;;;0.69;88.76;94988.95;110121;1276;22112;-73
2023/01/16 01:43:47;;;;;;;22.20;12.00;;;;;;;0.74;88.84;94989.67;110130;1274;22935;-73
2023/01/16 01:46:21;;;;;;;18.80;10.90;;;;;;;0.77;88.27;94988.85;110370;1276;22135;-73
2023/01/16 01:48:52;;;;;;;22.80;12.60;;;;;;;0.76;87.85;94985.02;110369;1273;22787;-72
2023/01/16 01:51:30;;;;;;;22.80;12.60;;;;;;;0.74;87.54;94988.48;110099;1274;22132;-72
2023/01/16 01:54:20;;;;;;;19.40;11.30;;;;;;;0.71;87.59;94991.72;110129;1276;22186;-72
2023/01/16 01:56:51;;;;;;;18.80;10.40;;;;;;;0.76;88.05;94987.80;110117;1273;22200;-72
2023/01/16 01:59:29;;;;;;;28.80;14.80;;;;;;;0.71;88.99;94983.77;110173;1276;22144;-72
2023/01/16 02:01:58;;;;;;;23.70;13.40;;;;;;;0.75;88.91;94985.89;110150;1276;22180;-72
2023/01/16 02:04:33;;;;;;;36.50;17.90;;;;;;;0.76;89.15;94972.04;110142;1276;22883;-72
2023/01/16 02:07:07;;;;;;;29.10;16.40;;;;;;;0.77;89.50;94972.75;110162;1276;22988;-72
2023/01/16 02:09:36;;;;;;;30.40;17.00;;;;;;;0.77;89.59;94973.60;110212;1271;22161;-72
2023/01/16 02:12:10;;;;;;;31.70;18.10;;;;;;;0.76;89.47;94961.84;110140;1276;22139;-72
2023/01/16 02:14:42;;;;;;;27.30;15.10;;;;;;;0.79;89.37;94954.06;110095;1277;22124;-72
2023/01/16 02:20:23;;;;;;;30.70;15.40;;;;;;;0.95;89.01;94945.70;110127;1273;22105;-72
2023/01/16 02:23:26;;;;;;;29.70;15.60;;;;;;;0.96;88.96;94939.14;110099;1273;22302;-73
2023/01/16 02:26:42;;;;;;;30.90;16.00;;;;;;;0.96;89.00;94925.46;110121;1274;22773;-73
2023/01/16 02:29:17;;;;;;;37.90;20.40;;;;;;;1.04;89.20;94923.79;110141;1277;22132;-73
2023/01/16 02:31:57;;;;;;;42.50;22.80;;;;;;;1.13;89.08;94913.11;110099;1277;22196;-73
2023/01/16 02:35:10;;;;;;;31.70;17.70;;;;;;;1.17;88.75;94908.98;110137;1276;22136;-73
2023/01/16 02:38:10;;;;;;;24.70;14.40;;;;;;;1.21;88.72;94909.00;109949;1279;22169;-73
2023/01/16 02:41:03;;;;;;;23.60;12.60;;;;;;;1.25;88.68;94916.82;110130;1277;22135;-73
2023/01/16 02:43:52;;;;;;;25.20;12.90;;;;;;;1.22;88.03;94925.81;110284;1271;22152;-73
2023/01/16 02:46:34;;;;;;;27.80;15.50;;;;;;;1.13;87.93;94925.23;110087;1277;22349;-72
2023/01/16 02:49:19;;;;;;;28.90;17.90;;;;;;;1.06;88.35;94933.84;110105;1276;22779;-73
2023/01/16 02:52:21;;;;;;;28.10;16.90;;;;;;;1.01;88.64;94928.27;110121;1277;22323;-73
2023/01/16 02:55:03;;;;;;;29.20;15.50;;;;;;;1.00;88.75;94926.17;110123;1276;22184;-72
2023/01/16 02:57:46;;;;;;;25.60;15.50;;;;;;;0.98;88.77;94924.25;110192;1277;22153;-72
2023/01/16 03:00:19;;;;;;;28.10;15.50;;;;;;;0.94;88.69;94926.65;110024;1277;22354;-73
2023/01/16 03:02:47;;;;;;;25.10;13.10;;;;;;;0.88;88.76;94919.16;110143;1277;22015;-73
2023/01/16 03:05:16;;;;;;;35.70;18.50;;;;;;;0.77;89.51;94923.59;110052;1277;22136;-73
2023/01/16 03:08:01;;;;;;;30.00;16.40;;;;;;;0.75;89.51;94923.21;110061;1277;22185;-72
2023/01/16 03:10:53;;;;;;;32.70;17.30;;;;;;;0.72;89.66;94924.57;110076;1277;22111;-72
2023/01/16 03:13:51;;;;;;;29.00;17.30;;;;;;;0.69;89.92;94924.03;110218;1277;22183;-73
2023/01/16 03:16:36;;;;;;;33.40;17.80;;;;;;;0.67;90.44;94916.05;110154;1277;22297;-73
2023/01/16 03:19:22;;;;;;;30.30;16.90;;;;;;;0.65;90.48;94918.46;110300;1277;22160;-73
2023/01/16 03:21:57;;;;;;;37.20;18.80;;;;;;;0.66;90.45;94913.98;110325;1273;22136;-73
2023/01/16 03:25:00;;;;;;;34.90;18.70;;;;;;;0.67;90.83;94919.51;110319;1274;22155;-73
2023/01/16 03:27:33;;;;;;;36.60;18.20;;;;;;;0.64;91.08;94921.21;110024;1277;22879;-73
2023/01/16 03:30:01;;;;;;;37.00;19.80;;;;;;;0.64;91.34;94917.59;110118;1277;22151;-73
2023/01/16 03:32:42;;;;;;;39.20;19.10;;;;;;;0.63;91.60;94914.46;110357;1277;22149;-73
2023/01/16 03:35:21;;;;;;;38.40;20.50;;;;;;;0.62;91.55;94912.73;110090;1277;23143;-73
2023/01/16 03:38:04;;;;;;;41.70;21.60;;;;;;;0.62;91.55;94911.33;110014;1277;22146;-73
2023/01/16 03:40:36;;;;;;;32.90;17.10;;;;;;;0.69;91.30;94904.66;110103;1277;22457;-73
2023/01/16 03:43:43;;;;;;;30.80;17.50;;;;;;;0.75;91.02;94903.48;110111;1273;22245;-73
2023/01/16 03:46:16;;;;;;;38.30;19.50;;;;;;;0.81;91.23;94897.47;110225;1277;22233;-73
2023/01/16 03:48:49;;;;;;;36.10;18.60;;;;;;;0.92;91.53;94896.16;110083;1277;22154;-73
2023/01/16 03:51:26;;;;;;;47.40;23.70;;;;;;;1.02;91.21;94898.48;110029;1277;22127;-73
2023/01/16 03:54:05;;;;;;;40.50;19.80;;;;;;;1.03;90.61;94890.88;110125;1277;22918;-73
2023/01/16 03:56:50;;;;;;;31.90;17.30;;;;;;;1.11;91.05;94889.71;110132;1274;22820;-73
2023/01/16 03:59:18;;;;;;;37.90;20.60;;;;;;;1.16;90.42;94884.71;110320;1277;23026;-72
2023/01/16 04:01:55;;;;;;;38.50;19.90;;;;;;;1.22;90.30;94879.73;110102;1277;22997;-73
2023/01/16 04:04:29;;;;;;;36.50;20.40;;;;;;;1.28;90.21;94876.98;110107;1277;22841;-72
2023/01/16 04:07:15;;;;;;;35.00;18.10;;;;;;;1.32;89.96;94877.36;110216;1276;22816;-73
2023/01/16 04:09:47;;;;;;;30.10;17.80;;;;;;;1.43;90.53;94866.85;110063;1273;22384;-73
2023/01/16 04:12:20;;;;;;;239.50;86.70;;;;;;;1.48;89.70;94862.19;110133;1272;22126;-73
2023/01/16 04:14:54;;;;;;;98.00;43.90;;;;;;;1.44;88.97;94862.17;110135;1276;22132;-73
2023/01/16 04:17:23;;;;;;;37.50;19.50;;;;;;;1.40;88.80;94859.55;110113;1276;22148;-72
2023/01/16 04:19:51;;;;;;;52.50;32.00;;;;;;;1.45;89.11;94864.77;110374;1276;22200;-72
2023/01/16 04:22:22;;;;;;;35.10;19.00;;;;;;;1.48;89.07;94861.50;110195;1276;22198;-73
2023/01/16 04:24:53;;;;;;;39.20;22.60;;;;;;;1.58;89.60;94848.71;110139;1276;22233;-73
2023/01/16 04:27:22;;;;;;;40.30;25.60;;;;;;;1.54;88.57;94846.96;110139;1274;22802;-72
2023/01/16 04:29:50;;;;;;;46.40;30.70;;;;;;;1.48;88.50;94842.43;110088;1276;22224;-72
2023/01/16 04:32:18;;;;;;;41.40;24.70;;;;;;;1.50;88.71;94847.64;110159;1276;22178;-72
2023/01/16 04:34:47;;;;;;;37.30;21.00;;;;;;;1.41;88.17;94849.69;110150;1273;22138;-72
2023/01/16 04:37:17;;;;;;;44.20;27.40;;;;;;;1.36;88.31;94851.05;110162;1276;22148;-72
2023/01/16 04:39:47;;;;;;;39.70;21.90;;;;;;;1.31;88.48;94845.13;110392;1276;22155;-72
2023/01/16 04:42:15;;;;;;;44.10;26.50;;;;;;;1.25;88.48;94845.27;110147;1276;22202;-72
2023/01/16 04:44:44;;;;;;;47.00;30.60;;;;;;;1.17;88.34;94842.80;110181;1276;22138;-72
2023/01/16 04:47:13;;;;;;;42.80;25.50;;;;;;;1.14;88.49;94845.91;110128;1276;22120;-72
2023/01/16 04:49:41;;;;;;;37.60;22.10;;;;;;;1.11;88.47;94843.30;110132;1273;22301;-72
2023/01/16 04:52:12;;;;;;;34.60;18.50;;;;;;;1.06;88.48;94843.79;110105;1274;22185;-72
2023/01/16 04:54:40;;;;;;;43.10;24.90;;;;;;;0.98;88.37;94840.61;110168;1273;22153;-72
2023/01/16 04:57:09;;;;;;;34.30;18.60;;;;;;;0.94;88.49;94836.09;110139;1272;22566;-72
2023/01/16 04:59:37;;;;;;;34.50;18.50;;;;;;;0.89;88.40;94838.14;110171;1274;22148;-72
2023/01/16 05:02:05;;;;;;;40.30;22.20;;;;;;;0.87;88.68;94831.71;110132;1276;22189;-72
2023/01/16 05:04:34;;;;;;;39.40;20.30;;;;;;;0.83;88.95;94828.58;110105;1275;22926;-73
2023/01/16 05:07:03;;;;;;;38.90;21.20;;;;;;;0.81;88.75;94833.76;110135;1273;22246;-73
2023/01/16 05:09:32;;;;;;;40.20;20.80;;;;;;;0.82;88.85;94830.30;110191;1274;22151;-72
2023/01/16 05:12:01;;;;;;;35.60;17.30;;;;;;;0.82;89.09;94819.92;110112;1276;22157;-73
2023/01/16 05:14:29;;;;;;;34.70;17.40;;;;;;;0.79;88.93;94814.52;110212;1276;23157;-72
2023/01/16 05:16:57;;;;;;;35.30;19.50;;;;;;;0.80;88.75;94814.70;110199;1276;22165;-73
2023/01/16 05:19:26;;;;;;;41.70;21.10;;;;;;;0.83;88.75;94805.37;110149;1276;22165;-73
2023/01/16 05:21:54;;;;;;;42.60;22.80;;;;;;;0.85;88.99;94796.04;110137;1276;22365;-73
2023/01/16 05:24:22;;;;;;;48.30;24.50;;;;;;;0.85;89.04;94796.91;110359;1276;22811;-73
2023/01/16 05:26:50;;;;;;;52.60;26.30;;;;;;;0.84;88.98;94797.77;110111;1276;22190;-73
2023/01/16 05:29:19;;;;;;;38.90;20.00;;;;;;;0.87;89.30;94801.94;110156;1276;22926;-72
2023/01/16 05:31:47;;;;;;;39.70;21.70;;;;;;;0.89;88.96;94802.65;110140;1276;22884;-73
2023/01/16 05:34:15;;;;;;;49.90;25.90;;;;;;;0.90;89.31;94794.52;110128;1276;22125;-73
2023/01/16 05:36:45;;;;;;;44.50;24.50;;;;;;;0.89;89.40;94791.39;110291;1272;22156;-73
2023/01/16 05:39:13;;;;;;;46.80;27.10;;;;;;;0.93;89.92;94786.73;110219;1271;22152;-73
2023/01/16 05:41:42;;;;;;;46.30;24.10;;;;;;;1.03;90.20;94781.26;110245;1271;22318;-73
2023/01/16 05:44:10;;;;;;;39.50;21.30;;;;;;;1.10;90.00;94776.60;110265;1276;23106;-73
2023/01/16 05:46:38;;;;;;;40.90;19.90;;;;;;;1.13;89.76;94776.80;110279;1272;22336;-73
2023/01/16 05:49:07;;;;;;;36.40;19.60;;;;;;;1.17;89.95;94780.09;110197;1276;22764;-73
2023/01/16 05:51:35;;;;;;;51.10;30.60;;;;;;;1.29;90.26;94780.16;110312;1275;22236;-73
2023/01/16 05:54:04;;;;;;;33.20;19.40;;;;;;;1.32;89.34;94782.94;110081;1276;22152;-73
2023/01/16 05:56:32;;;;;;;43.00;22.50;;;;;;;1.31;89.26;94781.02;110131;1274;22119;-73
2023/01/16 05:59:01;;;;;;;32.90;18.40;;;;;;;1.30;88.98;94785.36;110139;1272;22316;-80
2023/01/16 06:01:29;;;;;;;37.80;20.50;;;;;;;1.24;88.43;94788.43;110455;1276;22154;-75
2023/01/16 06:03:58;;;;;;;42.50;21.60;;;;;;;1.17;88.49;94786.16;110344;1276;22301;-70
2023/01/16 06:06:26;;;;;;;32.70;16.60;;;;;;;1.11;88.69;94775.91;110397;1276;22147;-71
2023/01/16 06:08:55;;;;;;;39.80;20.70;;;;;;;1.02;88.92;94774.66;110328;1276;22164;-72
2023/01/16 06:11:23;;;;;;;43.80;22.60;;;;;;;0.97;88.80;94772.73;110466;1276;22925;-72
2023/01/16 06:13:51;;;;;;;41.70;20.20;;;;;;;0.93;88.91;94766.48;110370;1276;22122;-72
2023/01/16 06:16:19;;;;;;;36.60;19.30;;;;;;;0.90;89.03;94767.49;110343;1276;22142;-73
2023/01/16 06:18:48;;;;;;;33.80;17.10;;;;;;;0.90;89.13;94774.59;110355;1270;22382;-74
2023/01/16 06:21:16;;;;;;;43.40;20.80;;;;;;;0.86;89.28;94764.54;110398;1276;22211;-72
2023/01/16 06:23:44;;;;;;;44.00;22.50;;;;;;;0.85;89.63;94773.54;110409;1276;22249;-76
2023/01/16 06:26:12;;;;;;;33.90;16.90;;;;;;;0.88;89.63;94774.06;110338;1276;22190;-70
2023/01/16 06:28:41;;;;;;;32.80;16.80;;;;;;;0.87;89.41;94765.23;110273;1276;22337;-72
2023/01/16 06:31:12;;;;;;;37.70;19.60;;;;;;;0.82;89.43;94761.92;110295;1271;23130;-74
2023/01/16 06:33:40;;;;;;;40.80;20.30;;;;;;;0.82;89.79;94761.58;110216;1277;22230;-68
2023/01/16 06:36:08;;;;;;;50.20;24.30;;;;;;;0.80;89.61;94761.91;110256;1271;22344;-75
2023/01/16 06:38:36;;;;;;;47.60;24.90;;;;;;;0.75;89.46;94757.22;110330;1270;22174;-79
2023/01/16 06:41:05;;;;;;;40.80;20.40;;;;;;;0.78;90.02;94765.36;110384;1275;22852;-76
2023/01/16 06:43:33;;;;;;;40.70;21.00;;;;;;;0.90;90.53;94771.14;110397;1276;22942;-72
2023/01/16 06:46:02;;;;;;;43.00;21.70;;;;;;;0.99;90.57;94768.76;110415;1276;23014;-70
2023/01/16 06:48:31;;;;;;;45.30;23.10;;;;;;;1.08;90.60;94768.98;110274;1276;22123;-73
2023/01/16 06:51:00;;;;;;;40.10;20.50;;;;;;;1.17;90.50;94764.86;110407;1276;23112;-69
2023/01/16 06:53:28;;;;;;;39.80;19.80;;;;;;;1.20;89.76;94762.10;110306;1276;22255;-72
2023/01/16 06:55:57;;;;;;;37.60;18.80;;;;;;;1.17;89.26;94758.11;110297;1276;23134;-73
2023/01/16 06:58:28;;;;;;;33.70;17.40;;;;;;;1.12;88.94;94757.73;110409;1276;22243;-74
2023/01/16 07:00:57;;;;;;;41.50;23.20;;;;;;;1.07;88.80;94759.61;110317;1276;22212;-72
2023/01/16 07:03:25;;;;;;;30.90;17.00;;;;;;;1.07;88.90;94765.33;110425;1276;23318;-75
2023/01/16 07:05:54;;;;;;;30.90;17.00;;;;;;;1.04;88.81;94763.41;110318;1276;22198;-74
2023/01/16 07:08:22;;;;;;;43.50;23.20;;;;;;;0.94;89.02;94760.06;110344;1276;22163;-72
2023/01/16 07:10:50;;;;;;;41.80;20.60;;;;;;;0.91;89.12;94757.98;110417;1276;22245;-78
2023/01/16 07:13:26;;;;;;;79.00;37.20;;;;;;;0.87;89.39;94757.61;110399;1276;22188;-76
2023/01/16 07:24:23;;;;;;;38.10;19.90;;;;;;;0.57;90.36;94756.23;110387;1276;22993;-71
2023/01/16 07:26:57;;;;;;;41.60;19.70;;;;;;;0.51;91.12;94746.52;110403;1276;22137;-75
2023/01/16 07:29:28;;;;;;;28.80;15.00;;;;;;;0.44;91.74;94747.16;110314;1276;22903;-75
2023/01/16 07:32:00;;;;;;;44.50;22.00;;;;;;;0.42;91.34;94745.41;110421;1276;22784;-72
2023/01/16 07:34:29;;;;;;;40.20;19.30;;;;;;;0.43;91.40;94745.77;110452;1276;22911;-78
2023/01/16 07:36:57;;;;;;;36.80;19.00;;;;;;;0.44;91.44;94740.94;110386;1276;23090;-80
2023/01/16 07:39:27;;;;;;;42.60;21.60;;;;;;;0.32;92.39;94743.96;110445;1276;22293;-80
2023/01/16 07:41:55;;;;;;;46.30;22.90;;;;;;;0.30;92.82;94740.15;110357;1276;22183;-82
2023/01/16 07:44:25;;;;;;;42.90;22.00;;;;;;;0.35;92.47;94733.79;110372;1272;22355;-79
2023/01/16 07:46:53;;;;;;;43.60;22.30;;;;;;;0.41;92.27;94732.61;110434;1277;22201;-78
2023/01/16 07:49:22;;;;;;;46.20;23.30;;;;;;;0.46;92.36;94729.17;110384;1270;22357;-79
2023/01/16 07:51:50;;;;;;;38.40;20.60;;;;;;;0.55;92.16;94728.20;110456;1276;22135;-73
2023/01/16 07:54:21;;;;;;;33.50;17.10;;;;;;;0.69;92.23;94734.16;110307;1276;22181;-74
2023/01/16 07:56:49;;;;;;;35.40;18.60;;;;;;;0.76;91.63;94730.21;110226;1277;22958;-82
2023/01/16 07:59:18;;;;;;;32.10;17.50;;;;;;;0.74;91.01;94729.86;110097;1277;23048;-78
2023/01/16 08:01:47;;;;;;;35.00;19.90;;;;;;;0.77;91.06;94729.70;110283;1277;22925;-73
2023/01/16 08:04:15;;;;;;;33.30;18.00;;;;;;;0.89;91.63;94729.23;110283;1277;23004;-74
2023/01/16 08:06:45;;;;;;;33.00;18.00;;;;;;;1.03;91.79;94722.73;110215;1277;22998;-74
2023/01/16 08:09:14;;;;;;;29.50;15.10;;;;;;;1.14;91.29;94722.40;110310;1277;22136;-71
2023/01/16 08:11:46;;;;;;;28.00;15.40;;;;;;;1.16;90.39;94718.95;110288;1276;22866;-78
2023/01/16 08:14:15;;;;;;;33.10;16.20;;;;;;;1.26;90.91;94714.13;110294;1277;22358;-75
2023/01/16 08:16:43;;;;;;;31.70;16.40;;;;;;;1.34;90.63;94704.45;110313;1277;22217;-76
2023/01/16 08:19:12;;;;;;;32.10;16.90;;;;;;;1.38;90.04;94698.23;109110;1271;1457667;-77
2023/01/16 08:21:40;;;;;;;35.60;16.40;;;;;;;1.42;89.59;94703.42;110302;1277;22854;-74
2023/01/16 08:24:12;;;;;;;37.10;17.20;;;;;;;1.41;89.19;94700.66;110195;1277;22297;-79
2023/01/16 08:26:41;;;;;;;31.40;15.70;;;;;;;1.39;89.03;94702.73;110267;1271;22196;-76
2023/01/16 08:29:10;;;;;;;33.50;16.70;;;;;;;1.29;88.59;94706.17;110209;1277;22171;-69
2023/01/16 08:31:38;;;;;;;35.00;19.40;;;;;;;1.19;88.42;94705.61;110303;1277;22131;-70
2023/01/16 08:34:07;;;;;;;37.90;20.40;;;;;;;1.24;89.23;94709.10;110222;1277;22152;-79
2023/01/16 08:36:35;;;;;;;32.10;17.20;;;;;;;1.34;89.25;94707.75;110078;1277;22941;-76
2023/01/16 08:39:04;;;;;;;32.10;16.00;;;;;;;1.39;88.89;94709.83;110288;1277;22937;-70
2023/01/16 08:53:01;;;;;;;38.10;22.40;;;;;;;1.79;88.41;94677.82;110457;1276;22170;-72
2023/01/16 08:55:29;;;;;;;34.90;18.60;;;;;;;1.82;87.92;94673.31;110450;1276;22139;-73
2023/01/16 08:57:58;;;;;;;34.60;17.20;;;;;;;1.80;87.37;94681.80;110441;1276;22199;-71
2023/01/16 09:00:28;;;;;;;33.50;17.70;;;;;;;1.81;87.89;94682.31;110430;1276;22797;-69
2023/01/16 09:02:59;;;;;;;26.60;14.60;;;;;;;1.81;87.78;94677.29;110447;1276;22155;-75
2023/01/16 09:05:27;;;;;;;32.10;17.60;;;;;;;1.77;87.43;94671.73;110469;1276;22133;-77
2023/01/16 09:07:56;;;;;;;29.50;16.80;;;;;;;1.70;87.21;94663.95;110477;1276;22265;-71
2023/01/16 09:10:24;;;;;;;35.40;21.10;;;;;;;1.65;86.96;94664.13;110301;1276;23077;-74
2023/01/16 09:15:39;;;;;;;30.10;16.40;;;;;;;1.52;87.01;94664.10;110467;1261;22396;-74
2023/01/16 09:18:08;;;;;;;32.80;16.30;;;;;;;1.52;87.26;94660.98;110277;1276;22209;-77
2023/01/16 09:20:36;;;;;;;25.80;14.10;;;;;;;1.55;87.37;94660.13;110442;1276;22152;-79
2023/01/16 09:23:05;;;;;;;29.40;14.60;;;;;;;1.57;87.31;94655.27;110427;1276;23096;-82
2023/01/16 09:25:33;;;;;;;29.70;15.40;;;;;;;1.59;87.22;94637.94;110440;1276;22205;-72
2023/01/16 09:28:03;;;;;;;29.50;16.00;;;;;;;1.62;87.52;94628.75;110466;1276;22223;-76
2023/01/16 09:30:31;;;;;;;30.70;15.80;;;;;;;1.63;87.39;94626.69;110268;1276;22317;-79
2023/01/16 09:33:00;;;;;;;32.20;18.10;;;;;;;1.55;86.62;94627.17;110475;1276;22192;-82
2023/01/16 09:35:28;;;;;;;36.10;18.90;;;;;;;1.58;87.03;94626.84;110271;1276;22171;-75
2023/01/16 09:37:56;;;;;;;29.30;16.10;;;;;;;1.53;86.82;94626.15;110286;1276;22243;-73
2023/01/16 09:40:25;;;;;;;39.10;21.10;;;;;;;1.52;86.80;94622.86;110464;1276;22224;-75
2023/01/16 09:45:53;;;;;;;37.80;19.30;;;;;;;1.55;86.66;94610.73;110459;1276;22207;-82
2023/01/16 09:48:29;;;;;;;40.40;20.10;;;;;;;1.57;87.13;94607.95;110246;1276;22824;-75
2023/01/16 09:51:04;;;;;;;47.40;24.00;;;;;;;1.62;87.34;94606.91;110296;1276;22818;-79
2023/01/16 09:59:25;;;;;;;41.90;20.20;;;;;;;1.84;86.59;94578.80;110281;1277;22716;-83
2023/01/16 10:02:02;;;;;;;38.60;18.20;;;;;;;1.89;86.77;94573.24;110315;1278;22120;-78
2023/01/16 10:04:31;;;;;;;31.40;17.20;;;;;;;2.01;86.61;94568.55;110319;1277;22596;-78
2023/01/16 10:07:31;;;;;;;30.00;15.50;;;;;;;2.09;86.47;94565.23;110304;1277;22134;-75
2023/01/16 10:10:08;;;;;;;36.60;20.00;;;;;;;2.20;86.03;94563.28;110256;1277;22240;-77
2023/01/16 10:12:39;;;;;;;34.40;17.80;;;;;;;2.28;85.53;94558.05;110259;1277;22254;-76
2023/01/16 10:15:31;;;;;;;31.80;17.60;;;;;;;2.35;85.40;94560.80;110264;1277;22191;-75
2023/01/16 10:18:40;;;;;;;36.40;18.70;;;;;;;2.46;85.32;94556.27;110294;1277;22152;-76
2023/01/16 10:21:30;;;;;;;36.50;19.50;;;;;;;2.56;85.24;94548.05;110257;1277;22794;-69
2023/01/16 10:24:06;;;;;;;31.90;18.70;;;;;;;2.74;85.73;94537.38;110272;1277;22308;-76
2023/01/16 10:26:53;;;;;;;40.30;20.40;;;;;;;2.86;85.13;94524.27;110285;1277;22227;-76
2023/01/16 10:29:36;;;;;;;46.20;24.40;;;;;;;2.96;84.87;94524.55;110276;1277;22196;-78
2023/01/16 10:32:26;;;;;;;40.90;20.20;;;;;;;3.03;84.86;94520.69;110231;1277;22140;-73
2023/01/16 10:35:11;;;;;;;36.80;18.40;;;;;;;3.13;84.52;94509.48;110286;1278;22249;-71
2023/01/16 10:37:42;;;;;;;33.30;18.00;;;;;;;3.10;83.59;94508.65;110306;1278;22202;-77
2023/01/16 10:40:17;;;;;;;33.70;18.00;;;;;;;3.07;83.82;94504.67;110242;1277;22189;-84
2023/01/16 10:51:16;;;;;;;32.30;17.20;;;;;;;2.78;83.47;94490.98;110223;1277;22278;-80
2023/01/16 10:53:44;;;;;;;30.30;17.40;;;;;;;2.77;83.82;94485.08;110209;1277;22247;-79
2023/01/16 10:56:13;;;;;;;25.40;15.40;;;;;;;2.77;83.49;94484.91;110278;1277;22155;-75
2023/01/16 10:58:41;;;;;;;27.00;16.00;;;;;;;2.72;83.35;94481.64;110296;1277;22264;-76
2023/01/16 11:01:16;;;;;;;34.80;17.50;;;;;;;2.66;83.52;94473.52;110276;1277;22164;-73
2023/01/16 11:03:50;;;;;;;31.50;16.70;;;;;;;2.59;83.78;94463.48;110272;1277;22148;-79
2023/01/16 11:06:20;;;;;;;36.40;18.40;;;;;;;2.57;83.63;94460.55;110239;1277;22315;-74
2023/01/16 11:08:52;;;;;;;35.20;17.20;;;;;;;2.64;84.07;94457.39;110268;1277;22128;-75
2023/01/16 11:20:34;;;;;;;29.80;16.80;;;;;;;2.77;84.29;94429.52;110265;1277;22172;-78
2023/01/16 11:23:09;;;;;;;37.90;21.80;;;;;;;2.80;84.04;94422.02;110208;1277;22359;-78
2023/01/16 11:25:38;;;;;;;32.90;17.90;;;;;;;2.85;84.09;94412.77;110232;1277;22269;-78
2023/01/16 11:28:11;;;;;;;29.20;15.20;;;;;;;2.92;84.25;94406.46;110210;1277;22682;-77
2023/01/16 11:30:42;;;;;;;;;;;;;;;2.93;83.44;94391.52;110260;1277;22375;-77
2023/01/16 11:33:54;;;;;;;31.00;15.70;;;;;;;2.88;83.49;94378.54;110241;1277;22190;-78
2023/01/16 11:36:25;;;;;;;30.40;17.00;;;;;;;2.92;83.85;94368.26;110260;1277;22144;-79
2023/01/16 11:38:53;;;;;;;37.20;22.10;;;;;;;2.99;84.11;94361.77;110290;1277;22172;-79
2023/01/16 11:41:37;;;;;;;33.30;19.70;;;;;;;3.07;84.09;94355.26;110284;1277;22308;-79
2023/01/16 11:47:15;;;;;;;32.20;17.70;;;;;;;3.08;83.10;94328.67;110284;1278;22139;-80
2023/01/16 11:49:46;;;;;;;34.30;18.80;;;;;;;2.99;82.84;94322.67;110106;1277;22309;-80
2023/01/16 11:52:29;;;;;;;29.90;17.70;;;;;;;2.98;83.43;94301.34;110279;1277;22880;-79
2023/01/16 11:55:04;;;;;;;34.80;18.40;;;;;;;2.86;82.40;94292.23;110289;1277;22086;-79
2023/01/16 11:57:53;;;;;;;33.00;18.30;;;;;;;2.73;82.98;94283.00;110110;1277;22149;-80
2023/01/16 12:00:40;;;;;;;29.70;18.40;;;;;;;2.58;83.24;94283.65;110307;1277;22287;-80
2023/01/16 12:03:39;;;;;;;32.70;17.90;;;;;;;2.40;83.84;94287.11;110307;1277;22146;-80
2023/01/16 12:06:43;;;;;;;37.60;19.10;;;;;;;2.26;84.28;94289.65;110279;1278;22117;-80
2023/01/16 12:09:36;;;;;;;34.30;18.50;;;;;;;2.13;84.63;94297.02;110297;1277;22887;-80
2023/01/16 12:15:25;;;;;;;36.60;20.90;;;;;;;2.01;85.09;94292.95;110297;1278;22852;-78
2023/01/16 12:18:15;;;;;;;41.70;22.50;;;;;;;2.01;85.30;94286.54;110303;1277;22836;-80
2023/01/16 12:20:46;;;;;;;39.10;20.50;;;;;;;2.00;85.28;94279.78;110316;1277;22210;-80
2023/01/16 12:23:14;;;;;;;33.40;18.70;;;;;;;2.00;85.37;94280.81;110288;1277;22137;-80
2023/01/16 12:26:05;;;;;;;36.00;19.60;;;;;;;2.01;85.13;94277.86;110307;1257;22133;-80
2023/01/16 12:28:50;;;;;;;33.20;17.50;;;;;;;2.02;85.14;94277.67;110239;1277;22104;-80
2023/01/16 12:31:38;;;;;;;34.20;19.30;;;;;;;1.99;85.17;94286.02;110287;1277;22112;-80
2023/01/16 12:34:34;;;;;;;32.70;18.70;;;;;;;1.94;84.89;94293.69;110295;1266;22245;-80
2023/01/16 12:37:05;;;;;;;36.10;20.10;;;;;;;1.94;84.84;94290.05;110276;1278;22763;-79
2023/01/16 12:40:20;;;;;;;29.60;16.10;;;;;;;1.96;84.92;94279.98;110282;1278;22874;-79
2023/01/16 12:43:19;;;;;;;;;;;;;;;1.99;85.19;94262.80;110192;1278;22455;-79
2023/01/16 12:46:12;;;;;;;34.60;17.90;;;;;;;2.05;85.41;94258.06;110175;1278;22289;-79